sensor_id;sensor_type;location;lat;lon;timestamp;P1;durP1;ratioP1;P2;durP2;ratioP2
31990;SDS011;18508;49.386;8.370;2022-10-04T00:02:27;10.73;;;5.80;;
31990;SDS011;18508;49.386;8.370;2022-10-04T00:05:04;11.23;;;5.90;;
31990;SDS011;18508;49.386;8.370;2022-10-04T00:07:36;12.15;;;6.70;;
31990;SDS011;18508;49.386;8.370;2022-10-04T00:10:15;9.85;;;5.57;;
31990;SDS011;18508;49.386;8.370;2022-10-04T00:12:48;10.25;;;6.32;;
31990;SDS011;18508;49.386;8.370;2022-10-04T00:15:19;13.77;;;6.40;;
31990;SDS011;18508;49.386;8.370;2022-10-04T00:18:00;15.88;;;6.55;;
31990;SDS011;18508;49.386;8.370;2022-10-04T00:23:40;11.52;;;6.00;;
31990;SDS011;18508;49.386;8.370;2022-10-04T00:26:13;12.07;;;5.97;;
31990;SDS011;18508;49.386;8.370;2022-10-04T00:34:51;11.10;;;6.13;;
31990;SDS011;18508;49.386;8.370;2022-10-04T00:37:21;12.65;;;5.53;;
31990;SDS011;18508;49.386;8.370;2022-10-04T00:39:56;13.50;;;6.07;;
31990;SDS011;18508;49.386;8.370;2022-10-04T00:42:46;13.85;;;5.93;;
31990;SDS011;18508;49.386;8.370;2022-10-04T00:45:25;11.07;;;6.00;;
31990;SDS011;18508;49.386;8.370;2022-10-04T00:48:15;11.23;;;6.03;;
31990;SDS011;18508;49.386;8.370;2022-10-04T00:51:12;11.90;;;6.28;;
31990;SDS011;18508;49.386;8.370;2022-10-04T00:56:42;12.50;;;6.70;;
31990;SDS011;18508;49.386;8.370;2022-10-04T00:59:30;16.63;;;7.10;;
31990;SDS011;18508;49.386;8.370;2022-10-04T01:02:04;14.32;;;6.43;;
31990;SDS011;18508;49.386;8.370;2022-10-04T01:07:07;16.13;;;6.93;;
31990;SDS011;18508;49.386;8.370;2022-10-04T01:09:38;14.20;;;6.93;;
31990;SDS011;18508;49.386;8.370;2022-10-04T01:12:16;14.50;;;6.28;;
31990;SDS011;18508;49.386;8.370;2022-10-04T01:15:05;12.27;;;5.47;;
31990;SDS011;18508;49.386;8.370;2022-10-04T01:17:45;13.80;;;6.47;;
31990;SDS011;18508;49.386;8.370;2022-10-04T01:20:36;11.95;;;6.00;;
31990;SDS011;18508;49.386;8.370;2022-10-04T01:23:09;11.30;;;5.97;;
31990;SDS011;18508;49.386;8.370;2022-10-04T01:25:46;12.23;;;6.57;;
31990;SDS011;18508;49.386;8.370;2022-10-04T01:28:16;14.13;;;5.93;;
31990;SDS011;18508;49.386;8.370;2022-10-04T01:30:46;16.20;;;6.93;;
31990;SDS011;18508;49.386;8.370;2022-10-04T01:33:15;12.73;;;5.53;;
31990;SDS011;18508;49.386;8.370;2022-10-04T01:35:44;13.75;;;6.05;;
31990;SDS011;18508;49.386;8.370;2022-10-04T01:38:17;9.95;;;5.57;;
31990;SDS011;18508;49.386;8.370;2022-10-04T01:40:45;11.35;;;6.20;;
31990;SDS011;18508;49.386;8.370;2022-10-04T01:43:19;11.35;;;5.82;;
31990;SDS011;18508;49.386;8.370;2022-10-04T01:45:55;10.38;;;5.65;;
31990;SDS011;18508;49.386;8.370;2022-10-04T01:48:29;11.00;;;5.20;;
31990;SDS011;18508;49.386;8.370;2022-10-04T01:51:02;11.45;;;6.13;;
31990;SDS011;18508;49.386;8.370;2022-10-04T01:53:39;12.27;;;6.30;;
31990;SDS011;18508;49.386;8.370;2022-10-04T01:56:13;15.80;;;7.50;;
31990;SDS011;18508;49.386;8.370;2022-10-04T01:58:44;12.60;;;7.28;;
31990;SDS011;18508;49.386;8.370;2022-10-04T02:01:18;12.55;;;7.07;;
31990;SDS011;18508;49.386;8.370;2022-10-04T02:03:54;13.65;;;7.40;;
31990;SDS011;18508;49.386;8.370;2022-10-04T02:06:26;14.23;;;7.50;;
31990;SDS011;18508;49.386;8.370;2022-10-04T02:08:57;11.75;;;7.40;;
31990;SDS011;18508;49.386;8.370;2022-10-04T02:11:28;15.10;;;7.70;;
31990;SDS011;18508;49.386;8.370;2022-10-04T02:13:57;16.92;;;7.50;;
31990;SDS011;18508;49.386;8.370;2022-10-04T02:16:27;15.70;;;7.60;;
31990;SDS011;18508;49.386;8.370;2022-10-04T02:18:56;18.90;;;7.45;;
31990;SDS011;18508;49.386;8.370;2022-10-04T02:21:25;15.18;;;6.93;;
31990;SDS011;18508;49.386;8.370;2022-10-04T02:23:54;11.68;;;7.15;;
31990;SDS011;18508;49.386;8.370;2022-10-04T02:26:24;14.73;;;7.30;;
31990;SDS011;18508;49.386;8.370;2022-10-04T02:28:52;14.43;;;6.78;;
31990;SDS011;18508;49.386;8.370;2022-10-04T02:31:21;12.45;;;6.05;;
31990;SDS011;18508;49.386;8.370;2022-10-04T02:34:08;17.48;;;6.93;;
31990;SDS011;18508;49.386;8.370;2022-10-04T02:36:38;12.82;;;6.38;;
31990;SDS011;18508;49.386;8.370;2022-10-04T02:39:11;12.60;;;6.57;;
31990;SDS011;18508;49.386;8.370;2022-10-04T02:41:45;13.95;;;6.38;;
31990;SDS011;18508;49.386;8.370;2022-10-04T02:44:16;11.25;;;6.05;;
31990;SDS011;18508;49.386;8.370;2022-10-04T02:46:51;12.68;;;6.13;;
31990;SDS011;18508;49.386;8.370;2022-10-04T02:49:25;11.38;;;6.47;;
31990;SDS011;18508;49.386;8.370;2022-10-04T02:51:58;15.63;;;7.45;;
31990;SDS011;18508;49.386;8.370;2022-10-04T02:54:34;13.93;;;7.03;;
31990;SDS011;18508;49.386;8.370;2022-10-04T02:57:10;10.93;;;6.25;;
31990;SDS011;18508;49.386;8.370;2022-10-04T02:59:41;11.95;;;7.20;;
31990;SDS011;18508;49.386;8.370;2022-10-04T03:02:19;12.30;;;6.50;;
31990;SDS011;18508;49.386;8.370;2022-10-04T03:04:55;11.55;;;6.70;;
31990;SDS011;18508;49.386;8.370;2022-10-04T03:07:27;15.40;;;7.70;;
31990;SDS011;18508;49.386;8.370;2022-10-04T03:09:59;15.55;;;7.25;;
31990;SDS011;18508;49.386;8.370;2022-10-04T03:12:33;14.05;;;7.35;;
31990;SDS011;18508;49.386;8.370;2022-10-04T03:15:05;12.65;;;6.45;;
31990;SDS011;18508;49.386;8.370;2022-10-04T03:17:35;14.52;;;7.68;;
31990;SDS011;18508;49.386;8.370;2022-10-04T03:20:04;17.58;;;8.68;;
31990;SDS011;18508;49.386;8.370;2022-10-04T03:22:34;15.48;;;7.07;;
31990;SDS011;18508;49.386;8.370;2022-10-04T03:25:02;15.65;;;6.60;;
31990;SDS011;18508;49.386;8.370;2022-10-04T03:27:35;12.52;;;6.63;;
31990;SDS011;18508;49.386;8.370;2022-10-04T03:30:04;16.65;;;7.78;;
31990;SDS011;18508;49.386;8.370;2022-10-04T03:32:34;13.05;;;6.55;;
31990;SDS011;18508;49.386;8.370;2022-10-04T03:35:04;18.80;;;8.75;;
31990;SDS011;18508;49.386;8.370;2022-10-04T03:37:35;13.32;;;7.03;;
31990;SDS011;18508;49.386;8.370;2022-10-04T03:40:06;12.57;;;7.30;;
31990;SDS011;18508;49.386;8.370;2022-10-04T03:42:38;14.57;;;7.40;;
31990;SDS011;18508;49.386;8.370;2022-10-04T03:45:07;16.98;;;7.57;;
31990;SDS011;18508;49.386;8.370;2022-10-04T03:47:42;15.18;;;7.40;;
31990;SDS011;18508;49.386;8.370;2022-10-04T03:50:14;15.43;;;7.70;;
31990;SDS011;18508;49.386;8.370;2022-10-04T03:52:47;15.52;;;7.57;;
31990;SDS011;18508;49.386;8.370;2022-10-04T03:55:19;15.50;;;8.18;;
31990;SDS011;18508;49.386;8.370;2022-10-04T03:57:51;14.57;;;7.55;;
31990;SDS011;18508;49.386;8.370;2022-10-04T04:00:19;17.45;;;9.25;;
31990;SDS011;18508;49.386;8.370;2022-10-04T04:02:47;15.77;;;8.10;;
31990;SDS011;18508;49.386;8.370;2022-10-04T04:05:21;18.55;;;8.88;;
31990;SDS011;18508;49.386;8.370;2022-10-04T04:08:02;22.05;;;8.43;;
31990;SDS011;18508;49.386;8.370;2022-10-04T04:10:33;18.13;;;8.57;;
31990;SDS011;18508;49.386;8.370;2022-10-04T04:13:10;13.63;;;7.50;;
31990;SDS011;18508;49.386;8.370;2022-10-04T04:15:47;15.90;;;7.95;;
31990;SDS011;18508;49.386;8.370;2022-10-04T04:18:17;16.92;;;7.68;;
31990;SDS011;18508;49.386;8.370;2022-10-04T04:20:49;15.25;;;7.88;;
31990;SDS011;18508;49.386;8.370;2022-10-04T04:23:24;19.23;;;7.63;;
31990;SDS011;18508;49.386;8.370;2022-10-04T04:26:00;14.25;;;7.68;;
31990;SDS011;18508;49.386;8.370;2022-10-04T04:31:15;14.13;;;7.60;;
31990;SDS011;18508;49.386;8.370;2022-10-04T04:33:50;18.23;;;7.95;;
31990;SDS011;18508;49.386;8.370;2022-10-04T04:36:26;16.10;;;7.32;;
31990;SDS011;18508;49.386;8.370;2022-10-04T04:39:05;15.90;;;7.88;;
31990;SDS011;18508;49.386;8.370;2022-10-04T04:41:51;17.38;;;7.93;;
31990;SDS011;18508;49.386;8.370;2022-10-04T04:44:21;17.48;;;8.13;;
31990;SDS011;18508;49.386;8.370;2022-10-04T04:46:50;16.48;;;7.75;;
31990;SDS011;18508;49.386;8.370;2022-10-04T04:49:20;18.23;;;8.27;;
31990;SDS011;18508;49.386;8.370;2022-10-04T04:51:49;18.50;;;9.25;;
31990;SDS011;18508;49.386;8.370;2022-10-04T04:54:19;17.67;;;8.32;;
31990;SDS011;18508;49.386;8.370;2022-10-04T04:56:51;18.63;;;8.90;;
31990;SDS011;18508;49.386;8.370;2022-10-04T04:59:21;21.85;;;9.23;;
31990;SDS011;18508;49.386;8.370;2022-10-04T05:01:52;20.38;;;9.63;;
31990;SDS011;18508;49.386;8.370;2022-10-04T05:04:21;27.15;;;14.05;;
31990;SDS011;18508;49.386;8.370;2022-10-04T05:06:58;25.52;;;12.95;;
31990;SDS011;18508;49.386;8.370;2022-10-04T05:09:29;28.02;;;12.25;;
31990;SDS011;18508;49.386;8.370;2022-10-04T05:12:02;29.85;;;13.40;;
31990;SDS011;18508;49.386;8.370;2022-10-04T05:14:37;30.98;;;13.27;;
31990;SDS011;18508;49.386;8.370;2022-10-04T05:17:14;26.80;;;11.65;;
31990;SDS011;18508;49.386;8.370;2022-10-04T05:19:46;26.05;;;11.77;;
31990;SDS011;18508;49.386;8.370;2022-10-04T05:22:16;27.58;;;12.02;;
31990;SDS011;18508;49.386;8.370;2022-10-04T05:24:49;31.77;;;11.43;;
31990;SDS011;18508;49.386;8.370;2022-10-04T05:27:23;30.48;;;12.55;;
31990;SDS011;18508;49.386;8.370;2022-10-04T05:29:59;26.02;;;11.35;;
31990;SDS011;18508;49.386;8.370;2022-10-04T05:32:33;25.67;;;11.88;;
31990;SDS011;18508;49.386;8.370;2022-10-04T05:35:14;29.48;;;11.52;;
31990;SDS011;18508;49.386;8.370;2022-10-04T05:37:44;25.35;;;10.52;;
31990;SDS011;18508;49.386;8.370;2022-10-04T05:40:24;17.25;;;9.27;;
31990;SDS011;18508;49.386;8.370;2022-10-04T05:42:58;18.42;;;8.55;;
31990;SDS011;18508;49.386;8.370;2022-10-04T05:45:28;20.92;;;9.88;;
31990;SDS011;18508;49.386;8.370;2022-10-04T05:47:59;23.58;;;11.15;;
31990;SDS011;18508;49.386;8.370;2022-10-04T05:50:29;19.20;;;9.45;;
31990;SDS011;18508;49.386;8.370;2022-10-04T05:53:09;20.70;;;9.93;;
31990;SDS011;18508;49.386;8.370;2022-10-04T05:55:54;21.95;;;9.77;;
31990;SDS011;18508;49.386;8.370;2022-10-04T05:58:42;20.40;;;8.88;;
31990;SDS011;18508;49.386;8.370;2022-10-04T06:01:29;21.00;;;9.93;;
31990;SDS011;18508;49.386;8.370;2022-10-04T06:04:09;21.20;;;9.77;;
31990;SDS011;18508;49.386;8.370;2022-10-04T06:06:47;21.73;;;9.77;;
31990;SDS011;18508;49.386;8.370;2022-10-04T06:09:24;16.48;;;8.05;;
31990;SDS011;18508;49.386;8.370;2022-10-04T06:12:15;21.58;;;9.70;;
31990;SDS011;18508;49.386;8.370;2022-10-04T06:15:04;22.55;;;8.88;;
31990;SDS011;18508;49.386;8.370;2022-10-04T06:17:57;22.83;;;9.85;;
31990;SDS011;18508;49.386;8.370;2022-10-04T06:21:02;19.98;;;8.65;;
31990;SDS011;18508;49.386;8.370;2022-10-04T06:23:48;17.38;;;9.57;;
31990;SDS011;18508;49.386;8.370;2022-10-04T06:26:24;19.90;;;9.98;;
31990;SDS011;18508;49.386;8.370;2022-10-04T06:28:57;25.10;;;13.38;;
31990;SDS011;18508;49.386;8.370;2022-10-04T06:31:35;22.30;;;13.23;;
31990;SDS011;18508;49.386;8.370;2022-10-04T06:34:37;22.58;;;11.80;;
31990;SDS011;18508;49.386;8.370;2022-10-04T06:37:36;22.70;;;11.52;;
31990;SDS011;18508;49.386;8.370;2022-10-04T06:43:13;21.95;;;11.05;;
31990;SDS011;18508;49.386;8.370;2022-10-04T06:51:44;24.13;;;11.27;;
31990;SDS011;18508;49.386;8.370;2022-10-04T06:54:32;19.95;;;10.65;;
31990;SDS011;18508;49.386;8.370;2022-10-04T07:00:13;22.98;;;10.48;;
31990;SDS011;18508;49.386;8.370;2022-10-04T07:02:45;19.90;;;9.63;;
31990;SDS011;18508;49.386;8.370;2022-10-04T07:05:17;21.92;;;9.70;;
31990;SDS011;18508;49.386;8.370;2022-10-04T07:08:00;22.00;;;10.55;;
31990;SDS011;18508;49.386;8.370;2022-10-04T07:10:39;18.92;;;10.18;;
31990;SDS011;18508;49.386;8.370;2022-10-04T07:13:20;21.75;;;10.55;;
31990;SDS011;18508;49.386;8.370;2022-10-04T07:16:00;21.45;;;10.77;;
31990;SDS011;18508;49.386;8.370;2022-10-04T07:18:34;21.55;;;10.95;;
31990;SDS011;18508;49.386;8.370;2022-10-04T07:21:10;19.95;;;11.32;;
31990;SDS011;18508;49.386;8.370;2022-10-04T07:23:45;30.00;;;14.17;;
31990;SDS011;18508;49.386;8.370;2022-10-04T07:26:20;28.88;;;16.23;;
31990;SDS011;18508;49.386;8.370;2022-10-04T07:28:53;28.33;;;15.90;;
31990;SDS011;18508;49.386;8.370;2022-10-04T07:31:46;25.80;;;14.02;;
31990;SDS011;18508;49.386;8.370;2022-10-04T07:36:49;26.27;;;12.35;;
31990;SDS011;18508;49.386;8.370;2022-10-04T07:39:23;28.77;;;12.57;;
31990;SDS011;18508;49.386;8.370;2022-10-04T07:41:54;22.48;;;11.57;;
31990;SDS011;18508;49.386;8.370;2022-10-04T07:44:27;23.40;;;12.50;;
31990;SDS011;18508;49.386;8.370;2022-10-04T07:47:02;22.77;;;12.02;;
31990;SDS011;18508;49.386;8.370;2022-10-04T07:49:39;20.90;;;11.05;;
31990;SDS011;18508;49.386;8.370;2022-10-04T07:55:18;22.80;;;12.05;;
31990;SDS011;18508;49.386;8.370;2022-10-04T07:57:53;25.20;;;13.27;;
31990;SDS011;18508;49.386;8.370;2022-10-04T08:00:35;27.73;;;11.57;;
31990;SDS011;18508;49.386;8.370;2022-10-04T08:03:25;67.38;;;38.80;;
31990;SDS011;18508;49.386;8.370;2022-10-04T08:06:06;35.15;;;20.02;;
31990;SDS011;18508;49.386;8.370;2022-10-04T08:08:54;24.20;;;12.30;;
31990;SDS011;18508;49.386;8.370;2022-10-04T08:11:40;25.95;;;13.48;;
31990;SDS011;18508;49.386;8.370;2022-10-04T08:14:19;22.27;;;12.35;;
31990;SDS011;18508;49.386;8.370;2022-10-04T08:16:58;22.73;;;11.55;;
31990;SDS011;18508;49.386;8.370;2022-10-04T08:19:46;20.38;;;11.05;;
31990;SDS011;18508;49.386;8.370;2022-10-04T08:22:29;22.77;;;12.13;;
31990;SDS011;18508;49.386;8.370;2022-10-04T08:25:10;25.38;;;11.27;;
31990;SDS011;18508;49.386;8.370;2022-10-04T08:27:49;21.55;;;11.90;;
31990;SDS011;18508;49.386;8.370;2022-10-04T08:30:45;24.20;;;11.35;;
31990;SDS011;18508;49.386;8.370;2022-10-04T08:33:27;19.20;;;9.68;;
31990;SDS011;18508;49.386;8.370;2022-10-04T08:36:13;21.10;;;9.70;;
31990;SDS011;18508;49.386;8.370;2022-10-04T08:38:51;16.08;;;8.88;;
31990;SDS011;18508;49.386;8.370;2022-10-04T08:44:47;15.82;;;8.15;;
31990;SDS011;18508;49.386;8.370;2022-10-04T08:47:54;11.98;;;7.25;;
31990;SDS011;18508;49.386;8.370;2022-10-04T08:50:58;14.25;;;7.60;;
31990;SDS011;18508;49.386;8.370;2022-10-04T09:00:08;13.48;;;7.45;;
31990;SDS011;18508;49.386;8.370;2022-10-04T09:02:54;12.07;;;6.50;;
31990;SDS011;18508;49.386;8.370;2022-10-04T09:05:55;14.50;;;6.70;;
31990;SDS011;18508;49.386;8.370;2022-10-04T09:08:53;13.13;;;6.93;;
31990;SDS011;18508;49.386;8.370;2022-10-04T09:11:51;12.00;;;7.03;;
31990;SDS011;18508;49.386;8.370;2022-10-04T09:14:33;13.52;;;7.35;;
31990;SDS011;18508;49.386;8.370;2022-10-04T09:17:21;11.82;;;7.55;;
31990;SDS011;18508;49.386;8.370;2022-10-04T09:20:00;10.73;;;6.50;;
31990;SDS011;18508;49.386;8.370;2022-10-04T09:23:00;12.57;;;7.18;;
31990;SDS011;18508;49.386;8.370;2022-10-04T09:25:46;9.88;;;6.50;;
31990;SDS011;18508;49.386;8.370;2022-10-04T09:28:23;13.18;;;6.15;;
31990;SDS011;18508;49.386;8.370;2022-10-04T09:34:29;8.95;;;5.78;;
31990;SDS011;18508;49.386;8.370;2022-10-04T09:37:21;7.68;;;5.22;;
31990;SDS011;18508;49.386;8.370;2022-10-04T09:40:09;9.90;;;5.38;;
31990;SDS011;18508;49.386;8.370;2022-10-04T09:43:22;7.93;;;5.10;;
31990;SDS011;18508;49.386;8.370;2022-10-04T09:46:06;8.90;;;4.93;;
31990;SDS011;18508;49.386;8.370;2022-10-04T09:48:45;9.05;;;5.50;;
31990;SDS011;18508;49.386;8.370;2022-10-04T09:51:39;8.52;;;5.53;;
31990;SDS011;18508;49.386;8.370;2022-10-04T09:57:29;8.63;;;5.18;;
31990;SDS011;18508;49.386;8.370;2022-10-04T10:00:12;7.63;;;5.28;;
31990;SDS011;18508;49.386;8.370;2022-10-04T10:02:53;10.52;;;5.05;;
31990;SDS011;18508;49.386;8.370;2022-10-04T10:05:47;11.93;;;6.60;;
31990;SDS011;18508;49.386;8.370;2022-10-04T10:08:39;8.05;;;4.85;;
31990;SDS011;18508;49.386;8.370;2022-10-04T10:11:14;9.68;;;5.20;;
31990;SDS011;18508;49.386;8.370;2022-10-04T10:14:19;9.65;;;5.13;;
31990;SDS011;18508;49.386;8.370;2022-10-04T10:17:00;9.27;;;5.82;;
31990;SDS011;18508;49.386;8.370;2022-10-04T10:22:54;11.00;;;5.20;;
31990;SDS011;18508;49.386;8.370;2022-10-04T10:28:28;6.57;;;4.53;;
31990;SDS011;18508;49.386;8.370;2022-10-04T10:31:27;7.85;;;4.65;;
31990;SDS011;18508;49.386;8.370;2022-10-04T10:34:29;7.45;;;4.68;;
31990;SDS011;18508;49.386;8.370;2022-10-04T10:37:20;6.90;;;4.43;;
31990;SDS011;18508;49.386;8.370;2022-10-04T10:40:08;7.18;;;5.18;;
31990;SDS011;18508;49.386;8.370;2022-10-04T10:43:05;7.32;;;4.90;;
31990;SDS011;18508;49.386;8.370;2022-10-04T10:46:11;9.00;;;5.03;;
31990;SDS011;18508;49.386;8.370;2022-10-04T11:01:28;6.35;;;4.80;;
31990;SDS011;18508;49.386;8.370;2022-10-04T11:04:32;7.53;;;5.15;;
31990;SDS011;18508;49.386;8.370;2022-10-04T11:10:29;6.57;;;4.72;;
31990;SDS011;18508;49.386;8.370;2022-10-04T11:13:28;7.03;;;4.35;;
31990;SDS011;18508;49.386;8.370;2022-10-04T11:19:45;5.85;;;3.85;;
31990;SDS011;18508;49.386;8.370;2022-10-04T11:22:50;8.63;;;4.35;;
31990;SDS011;18508;49.386;8.370;2022-10-04T11:25:58;7.53;;;4.85;;
31990;SDS011;18508;49.386;8.370;2022-10-04T11:28:46;7.75;;;4.90;;
31990;SDS011;18508;49.386;8.370;2022-10-04T11:31:31;10.23;;;4.43;;
31990;SDS011;18508;49.386;8.370;2022-10-04T11:37:32;8.98;;;4.40;;
31990;SDS011;18508;49.386;8.370;2022-10-04T11:40:22;7.72;;;4.15;;
31990;SDS011;18508;49.386;8.370;2022-10-04T11:43:05;4.55;;;3.47;;
31990;SDS011;18508;49.386;8.370;2022-10-04T11:46:04;6.15;;;3.95;;
31990;SDS011;18508;49.386;8.370;2022-10-04T11:48:42;6.38;;;3.67;;
31990;SDS011;18508;49.386;8.370;2022-10-04T11:51:30;5.15;;;3.20;;
31990;SDS011;18508;49.386;8.370;2022-10-04T11:54:24;5.43;;;3.58;;
31990;SDS011;18508;49.386;8.370;2022-10-04T11:57:19;8.05;;;4.25;;
31990;SDS011;18508;49.386;8.370;2022-10-04T12:00:08;6.80;;;3.75;;
31990;SDS011;18508;49.386;8.370;2022-10-04T12:02:53;5.53;;;3.80;;
31990;SDS011;18508;49.386;8.370;2022-10-04T12:05:37;5.53;;;3.60;;
31990;SDS011;18508;49.386;8.370;2022-10-04T12:08:24;7.15;;;4.47;;
31990;SDS011;18508;49.386;8.370;2022-10-04T12:14:22;7.75;;;4.07;;
31990;SDS011;18508;49.386;8.370;2022-10-04T12:20:50;6.03;;;3.65;;
31990;SDS011;18508;49.386;8.370;2022-10-04T12:23:38;5.53;;;3.50;;
31990;SDS011;18508;49.386;8.370;2022-10-04T12:29:58;5.28;;;3.40;;
31990;SDS011;18508;49.386;8.370;2022-10-04T12:35:15;4.47;;;3.08;;
31990;SDS011;18508;49.386;8.370;2022-10-04T12:38:03;4.90;;;3.55;;
31990;SDS011;18508;49.386;8.370;2022-10-04T12:40:58;4.70;;;3.13;;
31990;SDS011;18508;49.386;8.370;2022-10-04T12:43:40;5.35;;;3.25;;
31990;SDS011;18508;49.386;8.370;2022-10-04T12:46:22;4.85;;;3.15;;
31990;SDS011;18508;49.386;8.370;2022-10-04T12:49:01;4.60;;;3.63;;
31990;SDS011;18508;49.386;8.370;2022-10-04T12:51:39;5.53;;;3.40;;
31990;SDS011;18508;49.386;8.370;2022-10-04T12:54:28;5.93;;;3.72;;
31990;SDS011;18508;49.386;8.370;2022-10-04T12:57:14;7.85;;;3.70;;
31990;SDS011;18508;49.386;8.370;2022-10-04T12:59:58;5.72;;;3.50;;
31990;SDS011;18508;49.386;8.370;2022-10-04T13:05:25;4.33;;;2.80;;
31990;SDS011;18508;49.386;8.370;2022-10-04T13:08:00;4.38;;;3.20;;
31990;SDS011;18508;49.386;8.370;2022-10-04T13:10:47;5.28;;;2.95;;
31990;SDS011;18508;49.386;8.370;2022-10-04T13:16:43;4.18;;;3.08;;
31990;SDS011;18508;49.386;8.370;2022-10-04T13:19:37;4.85;;;3.58;;
31990;SDS011;18508;49.386;8.370;2022-10-04T13:22:20;6.00;;;3.40;;
31990;SDS011;18508;49.386;8.370;2022-10-04T13:25:19;5.10;;;3.25;;
31990;SDS011;18508;49.386;8.370;2022-10-04T13:27:56;4.65;;;3.05;;
31990;SDS011;18508;49.386;8.370;2022-10-04T13:30:28;4.47;;;3.20;;
31990;SDS011;18508;49.386;8.370;2022-10-04T13:33:05;5.97;;;3.08;;
31990;SDS011;18508;49.386;8.370;2022-10-04T13:38:29;5.70;;;3.20;;
31990;SDS011;18508;49.386;8.370;2022-10-04T13:41:15;5.22;;;3.47;;
31990;SDS011;18508;49.386;8.370;2022-10-04T13:43:53;4.35;;;2.63;;
31990;SDS011;18508;49.386;8.370;2022-10-04T13:46:36;5.80;;;3.08;;
31990;SDS011;18508;49.386;8.370;2022-10-04T13:49:18;4.22;;;2.83;;
31990;SDS011;18508;49.386;8.370;2022-10-04T13:52:00;4.88;;;3.17;;
31990;SDS011;18508;49.386;8.370;2022-10-04T13:54:58;4.47;;;2.95;;
31990;SDS011;18508;49.386;8.370;2022-10-04T13:57:59;4.40;;;2.88;;
31990;SDS011;18508;49.386;8.370;2022-10-04T14:00:42;4.30;;;3.40;;
31990;SDS011;18508;49.386;8.370;2022-10-04T14:03:44;4.90;;;3.35;;
31990;SDS011;18508;49.386;8.370;2022-10-04T14:06:29;5.90;;;3.10;;
31990;SDS011;18508;49.386;8.370;2022-10-04T14:15:40;4.93;;;3.00;;
31990;SDS011;18508;49.386;8.370;2022-10-04T14:18:38;5.43;;;2.70;;
31990;SDS011;18508;49.386;8.370;2022-10-04T14:30:58;4.72;;;3.22;;
31990;SDS011;18508;49.386;8.370;2022-10-04T14:33:52;3.97;;;2.67;;
31990;SDS011;18508;49.386;8.370;2022-10-04T14:36:56;4.22;;;2.35;;
31990;SDS011;18508;49.386;8.370;2022-10-04T14:39:47;4.53;;;2.50;;
31990;SDS011;18508;49.386;8.370;2022-10-04T14:42:42;3.78;;;2.58;;
31990;SDS011;18508;49.386;8.370;2022-10-04T14:45:36;3.80;;;2.60;;
31990;SDS011;18508;49.386;8.370;2022-10-04T14:48:19;4.50;;;3.15;;
31990;SDS011;18508;49.386;8.370;2022-10-04T14:51:12;5.03;;;2.80;;
31990;SDS011;18508;49.386;8.370;2022-10-04T14:53:53;4.65;;;2.85;;
31990;SDS011;18508;49.386;8.370;2022-10-04T14:56:34;5.10;;;2.90;;
31990;SDS011;18508;49.386;8.370;2022-10-04T14:59:20;5.70;;;3.00;;
31990;SDS011;18508;49.386;8.370;2022-10-04T15:02:12;8.50;;;4.00;;
31990;SDS011;18508;49.386;8.370;2022-10-04T15:05:12;4.90;;;3.42;;
31990;SDS011;18508;49.386;8.370;2022-10-04T15:08:24;7.85;;;3.63;;
31990;SDS011;18508;49.386;8.370;2022-10-04T15:11:05;5.68;;;4.00;;
31990;SDS011;18508;49.386;8.370;2022-10-04T15:13:38;4.28;;;3.03;;
31990;SDS011;18508;49.386;8.370;2022-10-04T15:16:30;4.70;;;3.58;;
31990;SDS011;18508;49.386;8.370;2022-10-04T15:21:57;4.85;;;3.67;;
31990;SDS011;18508;49.386;8.370;2022-10-04T15:24:31;5.25;;;3.95;;
31990;SDS011;18508;49.386;8.370;2022-10-04T15:27:21;6.88;;;4.00;;
31990;SDS011;18508;49.386;8.370;2022-10-04T15:30:09;6.05;;;4.75;;
31990;SDS011;18508;49.386;8.370;2022-10-04T15:32:47;5.00;;;3.50;;
31990;SDS011;18508;49.386;8.370;2022-10-04T15:35:24;5.13;;;3.83;;
31990;SDS011;18508;49.386;8.370;2022-10-04T15:38:05;5.95;;;3.90;;
31990;SDS011;18508;49.386;8.370;2022-10-04T15:40:52;6.85;;;3.95;;
31990;SDS011;18508;49.386;8.370;2022-10-04T15:43:30;8.10;;;4.95;;
31990;SDS011;18508;49.386;8.370;2022-10-04T15:49:13;4.32;;;3.50;;
31990;SDS011;18508;49.386;8.370;2022-10-04T15:52:14;5.18;;;3.65;;
31990;SDS011;18508;49.386;8.370;2022-10-04T15:55:10;5.47;;;3.78;;
31990;SDS011;18508;49.386;8.370;2022-10-04T15:57:53;3.95;;;3.45;;
31990;SDS011;18508;49.386;8.370;2022-10-04T16:00:48;4.60;;;3.53;;
31990;SDS011;18508;49.386;8.370;2022-10-04T16:03:31;6.13;;;4.18;;
31990;SDS011;18508;49.386;8.370;2022-10-04T16:06:16;6.88;;;3.72;;
31990;SDS011;18508;49.386;8.370;2022-10-04T16:08:51;6.47;;;3.92;;
31990;SDS011;18508;49.386;8.370;2022-10-04T16:14:43;6.15;;;4.00;;
31990;SDS011;18508;49.386;8.370;2022-10-04T16:17:25;5.03;;;3.83;;
31990;SDS011;18508;49.386;8.370;2022-10-04T16:20:20;5.60;;;3.78;;
31990;SDS011;18508;49.386;8.370;2022-10-04T16:23:42;5.90;;;4.50;;
31990;SDS011;18508;49.386;8.370;2022-10-04T16:26:11;7.15;;;4.65;;
31990;SDS011;18508;49.386;8.370;2022-10-04T16:29:07;7.18;;;4.20;;
31990;SDS011;18508;49.386;8.370;2022-10-04T16:31:50;5.90;;;4.20;;
31990;SDS011;18508;49.386;8.370;2022-10-04T16:34:37;5.78;;;4.38;;
31990;SDS011;18508;49.386;8.370;2022-10-04T16:39:49;5.57;;;4.18;;
31990;SDS011;18508;49.386;8.370;2022-10-04T16:42:31;6.68;;;4.47;;
31990;SDS011;18508;49.386;8.370;2022-10-04T16:51:06;8.20;;;5.03;;
31990;SDS011;18508;49.386;8.370;2022-10-04T16:54:02;7.53;;;4.95;;
31990;SDS011;18508;49.386;8.370;2022-10-04T16:59:43;10.82;;;5.47;;
31990;SDS011;18508;49.386;8.370;2022-10-04T17:02:27;7.85;;;4.50;;
31990;SDS011;18508;49.386;8.370;2022-10-04T17:05:29;8.57;;;5.40;;
31990;SDS011;18508;49.386;8.370;2022-10-04T17:08:22;9.20;;;5.72;;
31990;SDS011;18508;49.386;8.370;2022-10-04T17:17:20;11.52;;;5.78;;
31990;SDS011;18508;49.386;8.370;2022-10-04T17:19:55;9.27;;;6.55;;
31990;SDS011;18508;49.386;8.370;2022-10-04T17:22:30;13.63;;;7.93;;
31990;SDS011;18508;49.386;8.370;2022-10-04T17:25:22;12.45;;;8.15;;
31990;SDS011;18508;49.386;8.370;2022-10-04T17:27:56;11.13;;;7.72;;
31990;SDS011;18508;49.386;8.370;2022-10-04T17:30:40;14.15;;;6.63;;
31990;SDS011;18508;49.386;8.370;2022-10-04T17:33:19;8.90;;;6.63;;
31990;SDS011;18508;49.386;8.370;2022-10-04T17:36:12;10.13;;;7.00;;
31990;SDS011;18508;49.386;8.370;2022-10-04T17:39:01;10.50;;;6.97;;
31990;SDS011;18508;49.386;8.370;2022-10-04T17:42:05;9.98;;;7.10;;
31990;SDS011;18508;49.386;8.370;2022-10-04T17:45:05;11.23;;;7.13;;
31990;SDS011;18508;49.386;8.370;2022-10-04T17:48:08;13.13;;;6.85;;
31990;SDS011;18508;49.386;8.370;2022-10-04T17:50:59;12.80;;;7.43;;
31990;SDS011;18508;49.386;8.370;2022-10-04T17:54:10;15.30;;;8.73;;
31990;SDS011;18508;49.386;8.370;2022-10-04T17:57:08;15.07;;;9.32;;
31990;SDS011;18508;49.386;8.370;2022-10-04T17:59:41;15.35;;;8.95;;
31990;SDS011;18508;49.386;8.370;2022-10-04T18:02:15;14.35;;;8.80;;
31990;SDS011;18508;49.386;8.370;2022-10-04T18:04:48;12.73;;;8.60;;
31990;SDS011;18508;49.386;8.370;2022-10-04T18:07:22;14.15;;;9.02;;
31990;SDS011;18508;49.386;8.370;2022-10-04T18:09:53;15.32;;;8.25;;
31990;SDS011;18508;49.386;8.370;2022-10-04T18:12:27;14.82;;;8.73;;
31990;SDS011;18508;49.386;8.370;2022-10-04T18:15:00;14.23;;;10.15;;
31990;SDS011;18508;49.386;8.370;2022-10-04T18:17:34;19.85;;;11.60;;
31990;SDS011;18508;49.386;8.370;2022-10-04T18:20:17;17.95;;;11.63;;
31990;SDS011;18508;49.386;8.370;2022-10-04T18:22:57;16.73;;;10.55;;
31990;SDS011;18508;49.386;8.370;2022-10-04T18:25:30;21.50;;;12.88;;
31990;SDS011;18508;49.386;8.370;2022-10-04T18:28:00;27.63;;;17.85;;